createdAt,value
2018-07-20T15:08:09.011Z,28.40
2018-07-20T15:13:05.705Z,28.20
2018-07-20T15:15:34.163Z,28.10
2018-07-20T15:18:02.701Z,28.00
2018-07-20T15:20:31.150Z,28.00
2018-07-20T15:22:59.618Z,28.10
2018-07-20T15:25:28.121Z,28.10
2018-07-20T15:27:56.581Z,28.00
2018-07-20T15:30:25.101Z,28.10
2018-07-20T15:32:53.533Z,28.10
2018-07-20T15:35:22.009Z,28.20
2018-07-20T15:37:50.980Z,28.20
2018-07-20T15:40:20.105Z,28.20
2018-07-20T15:42:48.553Z,28.30
2018-07-20T15:45:17.024Z,28.20
2018-07-20T15:50:13.637Z,27.90
2018-07-20T15:55:10.624Z,27.70
2018-07-20T15:57:39.879Z,27.60
2018-07-20T16:00:09.445Z,27.60
2018-07-20T16:05:06.093Z,27.60
2018-07-20T16:07:34.570Z,27.50
2018-07-20T16:10:03.068Z,27.50
2018-07-20T16:12:31.574Z,27.40
2018-07-20T16:15:00.811Z,27.40
2018-07-20T16:17:29.269Z,27.30
2018-07-20T16:19:57.732Z,27.10
2018-07-20T16:22:26.268Z,26.90
2018-07-20T16:24:54.764Z,26.70
2018-07-20T16:29:51.372Z,26.00
2018-07-20T16:32:19.871Z,25.50
2018-07-20T16:34:50.294Z,25.00
2018-07-20T16:37:18.941Z,24.60
2018-07-20T16:39:48.190Z,24.50
2018-07-20T16:44:45.755Z,24.10
2018-07-20T16:47:14.301Z,23.80
2018-07-20T16:49:42.732Z,23.30
2018-07-20T16:52:11.164Z,23.10
2018-07-20T16:54:39.701Z,23.00
2018-07-20T16:57:08.163Z,23.00
2018-07-20T16:59:36.760Z,22.80
2018-07-20T17:02:05.259Z,22.80
2018-07-20T17:04:33.740Z,22.60
2018-07-20T17:07:02.195Z,22.50
2018-07-20T17:09:30.717Z,22.50
2018-07-20T17:11:59.192Z,22.50
2018-07-20T17:14:27.969Z,22.50
2018-07-20T17:16:58.129Z,22.60
2018-07-20T17:19:26.789Z,22.70
2018-07-20T17:21:55.372Z,22.80
2018-07-20T17:24:23.869Z,22.90
2018-07-20T17:26:52.332Z,22.80
2018-07-20T17:29:21.665Z,22.80
2018-07-20T17:31:50.209Z,22.80
2018-07-20T17:34:20.128Z,22.80
2018-07-20T17:36:48.902Z,22.90
2018-07-20T17:39:18.022Z,22.90
2018-07-20T17:41:47.169Z,22.80
2018-07-20T17:44:15.715Z,22.90
2018-07-20T17:47:05.093Z,22.70
2018-07-20T17:52:02.302Z,22.80
2018-07-20T17:54:31.605Z,22.90
2018-07-20T17:57:00.117Z,23.00
2018-07-20T17:59:28.669Z,22.70
2018-07-20T18:01:57.152Z,22.50
2018-07-20T18:04:25.621Z,22.40
2018-07-20T18:06:54.124Z,22.50
2018-07-20T18:09:22.613Z,22.60
2018-07-20T18:11:51.135Z,22.80
2018-07-20T18:14:19.706Z,22.80
2018-07-20T18:16:48.185Z,22.90
2018-07-20T18:19:16.683Z,22.90
2018-07-20T18:21:45.917Z,23.00
2018-07-20T18:24:14.412Z,23.00
2018-07-20T18:26:42.883Z,22.80
2018-07-20T18:29:11.362Z,22.90
2018-07-20T18:31:40.100Z,22.70
2018-07-20T18:34:08.581Z,22.80
2018-07-20T18:36:37.064Z,22.80
2018-07-20T18:39:09.041Z,22.80
2018-07-20T18:41:38.068Z,22.80
2018-07-20T18:44:06.548Z,22.90
2018-07-20T18:46:35.072Z,22.70
2018-07-20T18:49:04.097Z,22.70
2018-07-20T18:51:32.553Z,22.70
2018-07-20T18:54:01.018Z,22.70
2018-07-20T18:56:29.540Z,22.50
2018-07-20T18:58:58.099Z,22.40
2018-07-20T19:01:28.037Z,22.40
2018-07-20T19:03:56.523Z,22.50
2018-07-20T19:06:25.609Z,22.40
2018-07-20T19:08:54.084Z,22.40
2018-07-20T19:11:22.607Z,22.50
2018-07-20T19:13:51.044Z,22.60
2018-07-20T19:16:19.525Z,22.70
2018-07-20T19:18:47.948Z,22.60
2018-07-20T19:21:16.453Z,22.60
2018-07-20T19:23:44.974Z,22.60
2018-07-20T19:26:13.388Z,22.60
2018-07-20T19:28:41.819Z,22.50
2018-07-20T19:31:10.264Z,22.50
2018-07-20T19:33:38.719Z,22.40
2018-07-20T19:36:07.216Z,22.40
2018-07-20T19:38:35.677Z,22.30
2018-07-20T19:41:04.136Z,22.30
2018-07-20T19:43:32.606Z,22.20
2018-07-20T19:46:01.617Z,22.20
2018-07-20T19:48:30.080Z,22.00
2018-07-20T19:50:58.505Z,21.90
2018-07-20T19:53:26.956Z,22.00
2018-07-20T19:55:55.407Z,22.00
2018-07-20T19:58:24.281Z,21.90
2018-07-20T20:00:52.740Z,21.90
2018-07-20T20:03:21.192Z,22.00
2018-07-20T20:05:49.975Z,21.90
2018-07-20T20:08:18.467Z,21.90
2018-07-20T20:10:46.971Z,22.00
2018-07-20T20:13:15.679Z,21.90
2018-07-20T20:15:44.252Z,21.90
2018-07-20T20:18:12.667Z,21.90
2018-07-20T20:20:41.360Z,21.80
2018-07-20T20:23:09.861Z,21.70
2018-07-20T20:25:38.338Z,21.70
2018-07-20T20:28:06.851Z,21.60
2018-07-20T20:30:35.581Z,21.60
2018-07-20T20:33:04.077Z,21.50
2018-07-20T20:35:32.569Z,21.50
2018-07-20T20:38:01.062Z,21.50
2018-07-20T20:40:29.492Z,21.40
2018-07-20T20:42:58.244Z,21.40
2018-07-20T20:45:26.728Z,21.40
2018-07-20T20:47:55.194Z,21.40
2018-07-20T20:50:23.691Z,21.40
2018-07-20T20:52:52.232Z,21.40
2018-07-20T20:55:21.251Z,21.40
2018-07-20T20:57:49.712Z,21.40
2018-07-20T21:00:18.213Z,21.40
2018-07-20T21:02:46.692Z,21.40
2018-07-20T21:05:15.137Z,21.30
2018-07-20T21:07:43.601Z,21.30
2018-07-20T21:10:12.095Z,21.30
2018-07-20T21:12:40.569Z,21.20
2018-07-20T21:15:09.011Z,21.20
2018-07-20T21:17:37.484Z,21.10
2018-07-20T21:20:05.965Z,21.10
2018-07-20T21:22:34.437Z,21.00
2018-07-20T21:25:02.860Z,21.10
2018-07-20T21:27:31.300Z,21.00
2018-07-20T21:29:59.742Z,21.00
2018-07-20T21:32:28.216Z,21.00
2018-07-20T21:34:56.654Z,21.00
2018-07-20T21:37:25.117Z,21.00
2018-07-20T21:39:53.577Z,21.00
2018-07-20T21:42:22.025Z,21.00
2018-07-20T21:44:50.509Z,21.00
2018-07-20T21:47:18.948Z,21.10
2018-07-20T21:49:47.428Z,21.00
2018-07-20T21:52:15.896Z,21.00
2018-07-20T21:54:44.578Z,21.00
2018-07-20T21:57:13.032Z,21.10
2018-07-20T21:59:41.476Z,21.10
2018-07-20T22:02:10.050Z,21.00
2018-07-20T22:04:38.963Z,21.10
2018-07-20T22:07:07.432Z,21.10
2018-07-20T22:09:35.931Z,21.10
2018-07-20T22:12:04.456Z,21.00
2018-07-20T22:14:32.877Z,21.00
2018-07-20T22:17:01.345Z,20.90
2018-07-20T22:19:30.128Z,20.80
2018-07-20T22:21:58.610Z,20.80
2018-07-20T22:24:27.986Z,20.80
2018-07-20T22:26:56.448Z,20.80
2018-07-20T22:29:24.892Z,20.60
2018-07-20T22:31:53.986Z,20.50
2018-07-20T22:34:22.547Z,20.40
2018-07-20T22:36:51.296Z,20.50
2018-07-20T22:39:19.779Z,20.70
2018-07-20T22:41:48.248Z,20.70
2018-07-20T22:44:16.708Z,20.70
2018-07-20T22:46:45.164Z,20.50
2018-07-20T22:49:14.092Z,20.50
2018-07-20T22:51:42.637Z,20.50
2018-07-20T22:54:11.104Z,20.50
2018-07-20T22:59:07.796Z,20.60
2018-07-20T23:01:36.231Z,20.60
2018-07-20T23:04:04.696Z,20.50
2018-07-20T23:06:33.142Z,20.50
2018-07-20T23:09:01.650Z,20.50
2018-07-20T23:11:30.081Z,20.50
2018-07-20T23:13:59.086Z,20.40
2018-07-20T23:16:27.555Z,20.40
2018-07-20T23:18:55.996Z,20.40
2018-07-20T23:21:24.551Z,20.40
2018-07-20T23:23:52.981Z,20.50
2018-07-20T23:26:21.896Z,20.50
2018-07-20T23:28:50.328Z,20.50
2018-07-20T23:31:18.811Z,20.60
2018-07-20T23:33:47.272Z,20.60
2018-07-20T23:36:15.759Z,20.50
2018-07-20T23:38:44.398Z,20.50
2018-07-20T23:41:12.844Z,20.40
2018-07-20T23:43:41.320Z,20.30
2018-07-20T23:46:09.776Z,20.30
2018-07-20T23:48:38.575Z,20.20
2018-07-20T23:51:07.499Z,20.20
2018-07-20T23:53:35.993Z,20.20
2018-07-20T23:56:04.481Z,20.20
2018-07-20T23:58:32.963Z,20.20
